Time;durP1;ratioP1;P1;durP2;ratioP2;P2;SDS_P1;SDS_P2;PMS_P1;PMS_P2;Temp;Humidity;BMP_temperature;BMP_pressure;BME280_temperature;BME280_humidity;BME280_pressure;Samples;Min_cycle;Max_cycle;Signal;HPM_P1;HPM_P2
2021/04/29 00:01:43;;;;;;;11.43;7.50;;;;;;;9.13;56.65;99326.56;5022521;28;20038;-76
2021/04/29 00:04:09;;;;;;;10.95;8.05;;;;;;;9.12;56.30;99327.47;5021203;28;20030;-76
2021/04/29 00:06:34;;;;;;;10.88;7.25;;;;;;;9.12;56.69;99324.84;5024420;28;20037;-76
2021/04/29 00:09:00;;;;;;;12.15;7.47;;;;;;;9.12;56.78;99327.47;5021228;28;20052;-76
2021/04/29 00:11:25;;;;;;;13.73;7.97;;;;;;;9.13;56.53;99325.69;5021325;28;20073;-76
2021/04/29 00:13:50;;;;;;;11.55;7.40;;;;;;;9.13;56.43;99323.94;5023255;28;20400;-76
2021/04/29 00:16:16;;;;;;;13.05;7.72;;;;;;;9.12;56.42;99324.84;5023311;28;20123;-76
2021/04/29 00:18:41;;;;;;;10.32;7.43;;;;;;;9.09;56.63;99324.91;5021722;28;20081;-76
2021/04/29 00:21:06;;;;;;;11.13;8.60;;;;;;;9.06;56.52;99324.94;5024515;28;20034;-76
2021/04/29 00:23:32;;;;;;;9.70;7.35;;;;;;;9.02;57.33;99325.03;5021395;28;20038;-76
2021/04/29 00:25:57;;;;;;;11.70;7.78;;;;;;;8.96;57.25;99312.84;5023199;28;20033;-76
2021/04/29 00:28:23;;;;;;;11.95;7.95;;;;;;;8.93;58.40;99320.81;5022910;28;20112;-76
2021/04/29 00:30:49;;;;;;;11.88;8.25;;;;;;;8.90;58.35;99315.59;5003678;28;20034;-76
2021/04/29 00:33:14;;;;;;;10.18;7.35;;;;;;;8.88;58.43;99320.03;5023849;28;20029;-76
2021/04/29 00:35:40;;;;;;;10.25;7.05;;;;;;;8.89;58.41;99316.50;5021308;28;20409;-76
2021/04/29 00:38:05;;;;;;;12.63;8.20;;;;;;;8.91;58.53;99312.09;5022817;28;20033;-76
2021/04/29 00:40:31;;;;;;;24.90;8.40;;;;;;;8.94;58.41;99319.94;5022505;28;20112;-76
2021/04/29 00:42:56;;;;;;;10.75;7.72;;;;;;;9.02;58.81;99318.00;5006605;28;20033;-76
2021/04/29 00:45:22;;;;;;;9.90;6.95;;;;;;;9.11;58.57;99315.19;5020711;28;20068;-76
2021/04/29 00:47:49;;;;;;;10.45;7.30;;;;;;;9.23;58.01;99319.34;5023717;28;20067;-76
2021/04/29 00:50:16;;;;;;;10.00;6.88;;;;;;;9.31;57.86;99317.44;5021849;28;20092;-76
2021/04/29 00:52:41;;;;;;;12.02;8.07;;;;;;;9.37;58.14;99312.03;5021008;28;20038;-76
2021/04/29 00:55:08;;;;;;;12.82;7.78;;;;;;;9.44;58.33;99310.16;5023460;28;20038;-76
2021/04/29 00:57:34;;;;;;;10.00;7.90;;;;;;;9.51;58.11;99308.22;5020482;28;20034;-76
2021/04/29 01:00:00;;;;;;;9.68;7.50;;;;;;;9.59;57.69;99304.56;5022914;28;20037;-77
2021/04/29 01:02:27;;;;;;;12.57;8.35;;;;;;;9.65;57.89;99300.91;5021697;28;20037;-77
2021/04/29 01:05:02;;;;;;;9.73;6.72;;;;;;;9.72;57.79;99297.25;5020961;28;20398;-76
2021/04/29 01:07:31;;;;;;;10.48;7.53;;;;;;;9.82;58.00;99301.41;5018057;28;20687;-77
2021/04/29 01:10:02;;;;;;;11.35;7.50;;;;;;;9.91;57.17;99302.09;5021348;28;20083;-76
2021/04/29 01:12:40;;;;;;;10.63;7.03;;;;;;;10.00;57.41;99299.25;5022988;28;20555;-77
2021/04/29 01:15:06;;;;;;;13.65;7.45;;;;;;;10.07;57.46;99296.44;5022272;28;20053;-77
2021/04/29 01:17:35;;;;;;;11.68;7.50;;;;;;;10.07;57.40;99296.44;5002738;28;20030;-77
2021/04/29 01:20:17;;;;;;;12.07;7.50;;;;;;;10.11;58.32;99291.94;5016927;28;20057;-76
2021/04/29 01:23:15;;;;;;;12.15;7.97;;;;;;;10.14;58.46;99281.34;5019817;28;20129;-77
2021/04/29 01:25:42;;;;;;;13.10;8.02;;;;;;;10.17;57.75;99280.41;5018028;28;20086;-77
2021/04/29 01:28:07;;;;;;;11.23;6.97;;;;;;;10.21;57.48;99282.03;5021502;28;20038;-77
2021/04/29 01:30:34;;;;;;;10.77;7.63;;;;;;;10.24;57.90;99280.22;5022408;28;20041;-77
2021/04/29 01:33:00;;;;;;;9.80;7.63;;;;;;;10.25;57.82;99278.44;5019654;28;20457;-77
2021/04/29 01:35:26;;;;;;;14.13;7.43;;;;;;;10.28;57.75;99270.47;5022683;28;20083;-77
2021/04/29 01:37:53;;;;;;;13.55;7.93;;;;;;;10.26;58.03;99264.34;5021032;28;20509;-77
2021/04/29 01:40:19;;;;;;;8.80;6.82;;;;;;;10.25;58.29;99262.63;5020908;28;20030;-76
2021/04/29 01:42:44;;;;;;;12.80;7.88;;;;;;;10.26;58.58;99269.63;5022413;28;20049;-77
2021/04/29 01:45:10;;;;;;;11.32;7.45;;;;;;;10.28;58.58;99257.28;5019822;28;20034;-76
2021/04/29 01:47:36;;;;;;;10.48;7.93;;;;;;;10.29;58.82;99248.47;5022233;28;20041;-76
2021/04/29 01:50:03;;;;;;;10.05;6.93;;;;;;;10.30;58.52;99242.31;5021031;28;20034;-76
2021/04/29 01:52:29;;;;;;;8.95;6.63;;;;;;;10.30;58.67;99250.22;5020044;28;20033;-76
2021/04/29 01:54:55;;;;;;;8.80;6.43;;;;;;;10.34;58.50;99241.31;5022702;28;20043;-76
2021/04/29 01:57:21;;;;;;;10.20;7.47;;;;;;;10.38;59.05;99242.13;5019741;28;20037;-77
2021/04/29 01:59:47;;;;;;;9.00;6.75;;;;;;;10.41;59.02;99239.38;5021656;28;20026;-76
2021/04/29 02:02:12;;;;;;;8.27;6.15;;;;;;;10.37;59.33;99241.22;5004608;28;20505;-76
2021/04/29 02:04:37;;;;;;;9.50;6.88;;;;;;;10.38;59.41;99237.69;5020053;28;20092;-76
2021/04/29 02:07:03;;;;;;;12.98;8.23;;;;;;;10.44;59.35;99237.53;4998700;28;20093;-76
2021/04/29 02:09:29;;;;;;;8.48;6.93;;;;;;;10.49;59.47;99235.63;5022399;28;20133;-76
2021/04/29 02:11:59;;;;;;;9.57;6.20;;;;;;;10.56;59.00;99230.19;5020864;28;20050;-77
2021/04/29 02:14:46;;;;;;;8.75;5.72;;;;;;;10.60;59.49;99221.28;5024332;28;20038;-77
2021/04/29 02:17:54;;;;;;;10.95;7.65;;;;;;;10.63;60.37;99216.78;5004678;28;20041;-76
2021/04/29 02:20:22;;;;;;;11.63;6.95;;;;;;;10.63;59.73;99210.66;5020967;28;20057;-76
2021/04/29 02:22:48;;;;;;;10.30;6.70;;;;;;;10.68;59.43;99214.88;5024081;28;20034;-76
2021/04/29 02:25:14;;;;;;;9.75;7.43;;;;;;;10.72;59.60;99213.91;5004299;28;20476;-76
2021/04/29 02:27:40;;;;;;;9.98;6.80;;;;;;;10.71;60.16;99208.66;5021567;28;20569;-76
2021/04/29 02:30:11;;;;;;;12.20;6.63;;;;;;;10.72;59.91;99208.63;5024069;28;20049;-77
2021/04/29 02:32:37;;;;;;;9.20;6.25;;;;;;;10.78;59.93;99215.50;5020351;28;20498;-77
2021/04/29 02:35:05;;;;;;;17.20;12.27;;;;;;;10.85;60.33;99206.53;5024454;28;20033;-76
2021/04/29 02:37:31;;;;;;;19.08;13.77;;;;;;;10.96;60.09;99209.69;5020138;28;20057;-76
2021/04/29 02:39:57;;;;;;;15.90;11.50;;;;;;;11.06;59.89;99210.31;5023829;28;20033;-77
2021/04/29 02:42:22;;;;;;;11.85;7.85;;;;;;;11.11;59.24;99203.13;5023522;28;20040;-76
2021/04/29 02:44:48;;;;;;;9.60;6.95;;;;;;;11.16;59.27;99202.97;5022282;28;20049;-75
2021/04/29 02:47:15;;;;;;;8.90;6.32;;;;;;;11.19;58.89;99197.63;5018303;28;20037;-76
2021/04/29 02:49:41;;;;;;;12.60;9.18;;;;;;;11.23;58.76;99196.59;5025500;28;20037;-76
2021/04/29 02:52:09;;;;;;;14.60;11.55;;;;;;;11.33;59.35;99187.47;5023743;28;20564;-76
2021/04/29 02:54:34;;;;;;;20.10;14.30;;;;;;;11.45;58.85;99190.66;5021844;28;20120;-76
2021/04/29 02:57:00;;;;;;;14.00;12.07;;;;;;;11.54;58.83;99185.09;5021441;28;20081;-76
2021/04/29 02:59:25;;;;;;;10.75;8.82;;;;;;;11.61;57.91;99184.00;5023820;28;20084;-76
2021/04/29 03:01:51;;;;;;;13.50;8.20;;;;;;;11.67;58.51;99185.56;5023229;28;20037;-76
2021/04/29 03:04:16;;;;;;;12.25;9.10;;;;;;;11.73;57.94;99180.94;5023601;28;20045;-77
2021/04/29 03:06:41;;;;;;;10.95;6.82;;;;;;;11.79;57.66;99170.19;5023425;28;20030;-76
2021/04/29 03:09:07;;;;;;;8.77;6.35;;;;;;;11.79;57.86;99158.75;5025622;28;20037;-76
2021/04/29 03:11:36;;;;;;;9.70;7.38;;;;;;;11.79;58.14;99164.91;5020777;28;20128;-76
2021/04/29 03:14:02;;;;;;;10.18;7.53;;;;;;;11.89;57.67;99180.47;5024460;28;20041;-77
2021/04/29 03:16:27;;;;;;;11.63;7.43;;;;;;;11.96;57.40;99192.59;5007954;28;20532;-77
2021/04/29 03:18:53;;;;;;;9.40;7.15;;;;;;;12.01;57.17;99186.22;5022756;28;20033;-76
2021/04/29 03:21:18;;;;;;;9.13;6.00;;;;;;;12.01;57.33;99174.78;5025169;28;20493;-76
2021/04/29 03:23:43;;;;;;;8.45;5.43;;;;;;;12.03;57.30;99176.47;5004850;28;20766;-76
2021/04/29 03:26:09;;;;;;;9.07;6.45;;;;;;;12.10;57.56;99178.88;5024252;28;20038;-76
2021/04/29 03:28:34;;;;;;;9.27;6.20;;;;;;;12.13;57.15;99179.66;5024030;28;20046;-76
2021/04/29 03:31:00;;;;;;;10.95;6.38;;;;;;;12.17;57.10;99186.56;5022469;28;20034;-76
2021/04/29 03:33:25;;;;;;;8.00;5.80;;;;;;;12.18;57.37;99204.19;5024952;28;20449;-76
2021/04/29 03:35:50;;;;;;;9.63;6.05;;;;;;;12.20;57.42;99196.19;5022166;28;20574;-76
2021/04/29 03:38:15;;;;;;;10.25;5.72;;;;;;;12.15;58.20;99193.69;5024316;28;20505;-76
2021/04/29 03:40:41;;;;;;;8.82;5.95;;;;;;;12.05;58.61;99197.53;5023538;28;20036;-76
2021/04/29 03:43:06;;;;;;;8.73;6.05;;;;;;;12.04;58.04;99195.84;5021200;28;20128;-76
2021/04/29 03:45:33;;;;;;;10.52;5.70;;;;;;;12.03;58.24;99191.47;5018464;28;20041;-76
2021/04/29 03:47:59;;;;;;;9.43;6.05;;;;;;;12.18;57.73;99184.78;5005892;28;20042;-76
2021/04/29 03:50:24;;;;;;;7.65;5.32;;;;;;;12.24;57.48;99174.88;5019265;28;20037;-76
2021/04/29 03:52:50;;;;;;;7.75;5.47;;;;;;;12.33;57.41;99191.34;5022504;28;20049;-76
2021/04/29 03:55:15;;;;;;;7.70;5.13;;;;;;;12.40;56.96;99182.28;5024232;28;20079;-76
2021/04/29 03:57:41;;;;;;;8.15;5.45;;;;;;;12.48;56.76;99174.91;5044457;22;20050;-73
2021/04/29 04:00:08;;;;;;;7.72;5.90;;;;;;;12.49;56.71;99161.63;5033069;28;20378;-73
2021/04/29 04:02:33;;;;;;;10.50;6.68;;;;;;;12.52;56.33;99173.88;5032671;28;20037;-73
2021/04/29 04:04:58;;;;;;;7.93;5.68;;;;;;;12.59;56.37;99183.34;5032918;28;20033;-73
2021/04/29 04:07:24;;;;;;;8.63;6.15;;;;;;;12.62;56.29;99183.22;5032886;28;20052;-73
2021/04/29 04:09:49;;;;;;;7.80;4.80;;;;;;;12.70;55.74;99191.75;5032842;28;20049;-73
2021/04/29 04:12:14;;;;;;;8.57;5.18;;;;;;;12.75;56.16;99203.97;5032710;28;20040;-73
2021/04/29 04:14:40;;;;;;;8.63;5.10;;;;;;;12.78;56.51;99219.72;5033018;28;20406;-74
2021/04/29 04:17:05;;;;;;;8.15;4.75;;;;;;;12.84;56.08;99235.41;5032709;28;20548;-73
2021/04/29 04:19:31;;;;;;;9.80;4.68;;;;;;;12.87;55.87;99240.59;5033025;28;20394;-73
2021/04/29 04:21:56;;;;;;;10.93;5.25;;;;;;;12.87;55.72;99244.09;5032611;28;20056;-73
2021/04/29 04:24:22;;;;;;;11.85;6.20;;;;;;;12.87;55.91;99243.25;5032583;28;20041;-73
2021/04/29 04:26:47;;;;;;;7.35;5.25;;;;;;;12.81;56.28;99241.69;5032499;28;20029;-73
2021/04/29 04:29:13;;;;;;;11.07;5.90;;;;;;;12.74;57.93;99244.59;5032454;28;20543;-73
2021/04/29 04:31:38;;;;;;;10.75;5.38;;;;;;;12.70;57.25;99246.47;5032086;28;20494;-73
2021/04/29 04:34:03;;;;;;;6.55;5.18;;;;;;;12.70;56.96;99244.69;5032530;28;20029;-73
2021/04/29 04:36:29;;;;;;;6.78;4.57;;;;;;;12.72;57.51;99258.75;5032005;28;20530;-73
2021/04/29 04:38:54;;;;;;;8.13;5.68;;;;;;;12.70;57.62;99255.28;5032280;28;20045;-74
2021/04/29 04:41:19;;;;;;;8.18;5.40;;;;;;;12.68;58.30;99264.19;5030746;28;20076;-73
2021/04/29 04:43:45;;;;;;;8.00;5.40;;;;;;;12.70;58.69;99257.91;5032134;28;20139;-73
2021/04/29 04:46:10;;;;;;;12.10;6.30;;;;;;;12.66;59.28;99253.66;5032019;28;20100;-72
2021/04/29 04:48:35;;;;;;;9.75;5.85;;;;;;;12.57;60.31;99261.06;5032085;28;20030;-73
2021/04/29 04:51:02;;;;;;;8.00;5.43;;;;;;;12.47;61.84;99264.03;5031911;28;20029;-73
2021/04/29 04:53:27;;;;;;;8.32;5.82;;;;;;;12.45;62.70;99260.56;5031593;28;20070;-73
2021/04/29 04:55:53;;;;;;;11.75;5.95;;;;;;;12.37;62.23;99261.75;5031925;28;20041;-73
2021/04/29 04:58:18;;;;;;;11.35;7.95;;;;;;;12.25;64.40;99263.88;5031680;28;20112;-73
2021/04/29 05:00:45;;;;;;;23.27;17.70;;;;;;;12.16;63.85;99264.19;5031808;28;20043;-73
2021/04/29 05:03:11;;;;;;;11.73;8.68;;;;;;;12.10;64.61;99263.50;5031426;28;20033;-73
2021/04/29 05:05:40;;;;;;;13.20;8.30;;;;;;;12.05;65.22;99250.44;5026331;28;20037;-73
2021/04/29 05:08:06;;;;;;;11.20;8.20;;;;;;;12.09;65.93;99253.88;5031466;28;20056;-73
2021/04/29 05:10:32;;;;;;;14.05;12.50;;;;;;;11.99;66.39;99255.94;5031700;28;20037;-73
2021/04/29 05:13:00;;;;;;;11.30;9.35;;;;;;;11.94;67.45;99263.16;5031215;28;20033;-73
2021/04/29 05:15:25;;;;;;;20.50;11.30;;;;;;;11.98;67.14;99251.56;5031591;28;20038;-73
2021/04/29 05:17:51;;;;;;;16.10;11.40;;;;;;;12.04;67.41;99235.50;5031588;28;20055;-73
2021/04/29 05:20:17;;;;;;;12.75;8.77;;;;;;;12.04;67.94;99216.97;5026304;28;20175;-72
2021/04/29 05:22:42;;;;;;;10.70;7.97;;;;;;;11.96;68.48;99217.22;5031243;28;20515;-73
2021/04/29 05:25:07;;;;;;;12.93;8.25;;;;;;;11.91;68.12;99213.03;5031496;28;20045;-73
2021/04/29 05:27:33;;;;;;;10.75;7.28;;;;;;;11.88;68.68;99211.34;5031427;28;20017;-73
2021/04/29 05:29:58;;;;;;;10.40;7.50;;;;;;;11.93;68.40;99214.69;5031413;28;20045;-72
2021/04/29 05:32:23;;;;;;;9.88;8.10;;;;;;;11.94;68.06;99208.47;5031181;28;20049;-72
2021/04/29 05:34:48;;;;;;;11.50;8.18;;;;;;;11.82;68.56;99209.72;5031310;28;20041;-73
2021/04/29 05:37:14;;;;;;;11.63;8.18;;;;;;;11.85;68.85;99214.06;5031392;28;20052;-73
2021/04/29 05:39:39;;;;;;;10.02;8.13;;;;;;;11.87;68.79;99235.16;5030986;28;20083;-73
2021/04/29 05:42:05;;;;;;;10.85;7.45;;;;;;;11.92;68.47;99244.72;5030751;28;20041;-73
2021/04/29 05:44:30;;;;;;;10.63;7.97;;;;;;;11.97;68.20;99253.34;5031039;28;20034;-73
2021/04/29 05:46:55;;;;;;;9.23;7.38;;;;;;;11.96;68.41;99269.25;5029701;28;20037;-73
2021/04/29 05:49:20;;;;;;;11.45;8.27;;;;;;;11.93;68.83;99282.59;5030274;28;20035;-73
2021/04/29 05:51:46;;;;;;;9.65;8.25;;;;;;;11.92;69.43;99270.25;5030842;28;20040;-73
2021/04/29 05:54:11;;;;;;;10.48;9.13;;;;;;;11.79;70.13;99281.19;5030893;28;20045;-73
2021/04/29 05:56:36;;;;;;;10.52;8.40;;;;;;;11.74;70.74;99282.25;5030824;28;20037;-73
2021/04/29 05:59:04;;;;;;;10.25;7.78;;;;;;;11.67;71.25;99286.84;5031022;28;20052;-73
2021/04/29 06:01:29;;;;;;;12.07;8.68;;;;;;;11.58;72.08;99287.13;5027043;28;20041;-73
2021/04/29 06:03:55;;;;;;;13.48;8.80;;;;;;;11.47;72.26;99289.22;5030763;28;20048;-72
2021/04/29 06:06:20;;;;;;;14.80;10.07;;;;;;;11.48;72.95;99288.34;5030245;28;20029;-73
2021/04/29 06:08:45;;;;;;;16.35;11.05;;;;;;;11.50;73.69;99287.38;5030229;28;20048;-73
2021/04/29 06:11:11;;;;;;;14.80;10.48;;;;;;;11.48;73.71;99277.78;5030475;28;20045;-73
2021/04/29 06:13:36;;;;;;;12.48;10.18;;;;;;;11.51;74.36;99275.03;5030608;28;20036;-72
2021/04/29 06:16:02;;;;;;;166.55;129.25;;;;;;;11.57;74.20;99282.75;5030861;28;20636;-73
2021/04/29 06:18:27;;;;;;;34.75;28.75;;;;;;;11.61;73.60;99287.91;5030620;28;20030;-73
2021/04/29 06:20:52;;;;;;;16.10;12.68;;;;;;;11.71;74.13;99293.78;5030821;28;20033;-73
2021/04/29 06:23:18;;;;;;;12.95;10.45;;;;;;;11.74;73.97;99298.97;5030580;28;20401;-72
2021/04/29 06:25:43;;;;;;;14.05;10.68;;;;;;;11.71;75.10;99299.09;5030712;28;20493;-73
2021/04/29 06:28:08;;;;;;;11.57;9.50;;;;;;;11.75;73.65;99299.84;5030350;28;20116;-72
2021/04/29 06:30:34;;;;;;;14.07;11.25;;;;;;;11.75;74.39;99298.06;5030400;28;20045;-73
2021/04/29 06:32:59;;;;;;;12.18;9.77;;;;;;;11.94;73.76;99284.31;5030437;28;20042;-73
2021/04/29 06:35:25;;;;;;;13.35;10.38;;;;;;;12.02;74.58;99296.34;5030684;28;20034;-73
2021/04/29 06:37:50;;;;;;;11.00;9.55;;;;;;;12.07;73.44;99296.22;5030631;28;20042;-73
2021/04/29 06:40:15;;;;;;;13.52;11.02;;;;;;;12.05;74.47;99305.97;5030720;28;20041;-72
2021/04/29 06:42:41;;;;;;;17.67;12.20;;;;;;;12.06;74.32;99303.28;5030369;28;20041;-73
2021/04/29 06:45:07;;;;;;;18.42;12.00;;;;;;;12.04;74.37;99302.47;5030582;28;20029;-72
2021/04/29 06:47:33;;;;;;;12.93;9.93;;;;;;;12.09;74.69;99299.69;5030478;28;20041;-73
2021/04/29 06:49:59;;;;;;;14.48;10.10;;;;;;;12.20;73.75;99301.97;5030541;28;20037;-73
2021/04/29 06:52:24;;;;;;;12.73;10.15;;;;;;;12.19;74.46;99297.63;5030353;28;20041;-72
2021/04/29 06:54:50;;;;;;;13.75;10.85;;;;;;;12.18;73.87;99302.03;5030443;28;20477;-72
2021/04/29 06:57:15;;;;;;;12.73;11.05;;;;;;;12.19;73.96;99301.13;5029004;28;20042;-73
2021/04/29 06:59:41;;;;;;;13.77;11.43;;;;;;;12.31;73.44;99298.97;5033652;28;20037;-73
2021/04/29 07:02:07;;;;;;;13.68;10.73;;;;;;;12.35;73.94;99295.34;5033968;28;20037;-72
2021/04/29 07:04:32;;;;;;;13.38;10.80;;;;;;;12.36;73.60;99289.97;5033914;28;20120;-73
2021/04/29 07:06:58;;;;;;;13.45;10.90;;;;;;;12.38;73.77;99297.88;5028512;28;20124;-72
2021/04/29 07:09:23;;;;;;;14.55;11.38;;;;;;;12.43;73.60;99295.94;5033854;28;20087;-73
2021/04/29 07:11:49;;;;;;;16.23;13.68;;;;;;;12.39;74.53;99286.34;5033721;28;20069;-73
2021/04/29 07:14:14;;;;;;;14.15;12.65;;;;;;;12.41;74.34;99300.41;5033690;28;20083;-73
2021/04/29 07:16:39;;;;;;;16.98;14.30;;;;;;;12.48;73.95;99299.28;5033921;28;20041;-73
2021/04/29 07:19:05;;;;;;;16.08;13.52;;;;;;;12.59;74.27;99293.63;5033924;28;20543;-73
2021/04/29 07:21:30;;;;;;;14.82;11.45;;;;;;;12.67;73.77;99300.38;5033545;28;20557;-73
2021/04/29 07:23:56;;;;;;;13.30;11.68;;;;;;;12.74;73.37;99297.56;5033744;28;20037;-73
2021/04/29 07:26:21;;;;;;;15.35;12.00;;;;;;;12.85;73.26;99300.69;5033620;28;20072;-72
2021/04/29 07:28:46;;;;;;;13.60;11.73;;;;;;;13.02;72.67;99294.78;5033599;28;20125;-73
2021/04/29 07:31:12;;;;;;;13.48;11.27;;;;;;;13.03;72.52;99289.44;5033453;28;20068;-73
2021/04/29 07:33:39;;;;;;;13.05;11.00;;;;;;;13.15;72.10;99294.28;5033351;28;20065;-73
2021/04/29 07:36:06;;;;;;;16.20;11.20;;;;;;;13.29;71.46;99288.50;5033560;28;20044;-73
2021/04/29 07:38:31;;;;;;;13.55;11.18;;;;;;;13.41;70.65;99292.47;5033483;28;20045;-73
2021/04/29 07:40:57;;;;;;;14.45;11.68;;;;;;;13.50;70.53;99296.59;5033361;28;20116;-72
2021/04/29 07:43:22;;;;;;;13.85;10.73;;;;;;;13.62;70.24;99298.75;5033071;28;20048;-73
2021/04/29 07:45:48;;;;;;;12.95;11.13;;;;;;;13.75;70.26;99293.84;5033308;28;20068;-72
2021/04/29 07:48:13;;;;;;;13.43;11.23;;;;;;;13.85;69.84;99295.22;5033264;28;20037;-73
2021/04/29 07:50:38;;;;;;;12.05;10.15;;;;;;;14.02;69.21;99292.78;5033175;28;20030;-72
2021/04/29 07:53:04;;;;;;;13.43;11.75;;;;;;;14.08;68.23;99282.84;5029040;28;20040;-72
2021/04/29 07:55:29;;;;;;;15.90;12.07;;;;;;;14.08;68.33;99285.50;5033133;28;20500;-73
2021/04/29 07:57:55;;;;;;;13.18;11.10;;;;;;;14.24;67.69;99275.97;5032775;28;20034;-73
2021/04/29 08:00:21;;;;;;;12.93;11.52;;;;;;;14.38;67.56;99284.25;5031778;28;20095;-73
2021/04/29 08:02:46;;;;;;;13.15;10.48;;;;;;;14.66;66.64;99285.75;5032854;28;20037;-73
2021/04/29 08:05:12;;;;;;;12.35;10.95;;;;;;;14.64;66.85;99290.25;5033024;28;20262;-72
2021/04/29 08:07:37;;;;;;;14.77;11.45;;;;;;;14.62;67.00;99281.53;5031655;28;20052;-73
2021/04/29 08:10:04;;;;;;;12.23;10.93;;;;;;;14.54;67.02;99288.91;5032095;28;20062;-73
2021/04/29 08:12:29;;;;;;;14.93;10.88;;;;;;;14.67;67.24;99287.47;5032392;28;20045;-73
2021/04/29 08:14:57;;;;;;;12.63;11.07;;;;;;;14.76;65.89;99289.75;5032743;28;20048;-72
2021/04/29 08:17:23;;;;;;;18.48;14.00;;;;;;;14.68;67.03;99286.56;5029006;28;20037;-73
2021/04/29 08:19:48;;;;;;;17.30;13.38;;;;;;;14.65;67.45;99284.03;5032785;28;20382;-73
2021/04/29 08:22:13;;;;;;;11.57;9.90;;;;;;;14.81;66.13;99293.06;5032346;28;20405;-73
2021/04/29 08:24:39;;;;;;;12.40;10.07;;;;;;;14.77;65.93;99299.44;5032602;28;20108;-73
2021/04/29 08:27:04;;;;;;;12.88;10.65;;;;;;;14.78;66.58;99293.22;5032447;28;20087;-73
2021/04/29 08:29:29;;;;;;;12.98;10.90;;;;;;;14.81;66.58;99287.75;5032382;28;20040;-73
2021/04/29 08:31:55;;;;;;;13.23;10.82;;;;;;;14.84;65.75;99284.97;5032540;28;20029;-72
2021/04/29 08:34:20;;;;;;;13.13;10.38;;;;;;;14.88;64.84;99291.00;5032408;28;20108;-72
2021/04/29 08:36:45;;;;;;;17.65;14.52;;;;;;;15.04;65.58;99292.06;5032422;28;20366;-72
2021/04/29 08:39:11;;;;;;;15.27;13.20;;;;;;;15.26;64.43;99299.06;5032356;28;20049;-73
2021/04/29 08:41:36;;;;;;;12.35;10.38;;;;;;;15.42;63.89;99300.09;5031921;28;20029;-73
2021/04/29 08:44:03;;;;;;;13.02;11.50;;;;;;;15.55;63.19;99306.59;5032313;28;20112;-73
2021/04/29 08:46:28;;;;;;;12.85;10.60;;;;;;;15.78;63.24;99299.38;5032120;28;20044;-73
2021/04/29 08:48:57;;;;;;;14.25;11.68;;;;;;;15.99;63.08;99305.47;5032164;28;20045;-73
2021/04/29 08:51:25;;;;;;;13.85;10.23;;;;;;;16.28;61.63;99303.19;5030278;28;20473;-73
2021/04/29 08:53:51;;;;;;;13.32;10.65;;;;;;;16.54;61.21;99297.44;5031252;28;20116;-72
2021/04/29 08:56:25;;;;;;;14.75;11.65;;;;;;;16.78;60.53;99300.69;5031666;28;20117;-73
2021/04/29 08:58:52;;;;;;;14.63;11.85;;;;;;;16.86;60.82;99294.97;5031927;28;20091;-73
2021/04/29 09:01:18;;;;;;;17.33;13.90;;;;;;;16.94;61.16;99298.09;5031656;28;20057;-73
2021/04/29 09:03:44;;;;;;;13.05;10.80;;;;;;;17.08;59.79;99287.59;5031781;28;20250;-73
2021/04/29 09:06:09;;;;;;;21.75;14.07;;;;;;;17.14;58.33;99297.06;5031517;28;20501;-73
2021/04/29 09:08:36;;;;;;;16.40;12.88;;;;;;;17.19;58.08;99295.00;5031723;28;20037;-73
2021/04/29 09:11:14;;;;;;;13.93;11.85;;;;;;;17.26;56.80;99292.88;5031507;28;20120;-73
2021/04/29 09:13:52;;;;;;;11.15;9.10;;;;;;;17.19;57.63;99294.16;5029451;28;20037;-73
2021/04/29 09:16:17;;;;;;;10.63;8.73;;;;;;;17.12;57.59;99292.75;5031770;28;20111;-73
2021/04/29 09:18:43;;;;;;;13.68;9.75;;;;;;;17.06;58.32;99284.13;5026760;28;20481;-72
2021/04/29 09:21:14;;;;;;;11.45;9.88;;;;;;;17.12;58.21;99282.94;5031410;28;20029;-73
2021/04/29 09:23:42;;;;;;;10.53;9.10;;;;;;;16.90;56.75;99277.00;5027873;28;20037;-73
2021/04/29 09:26:10;;;;;;;11.27;9.02;;;;;;;17.09;56.93;99283.97;5031418;28;20049;-73
2021/04/29 09:28:37;;;;;;;11.32;8.60;;;;;;;17.40;56.19;99290.34;5031464;28;20048;-73
2021/04/29 09:31:06;;;;;;;9.30;7.50;;;;;;;17.21;55.12;99282.47;5031354;28;20037;-73
2021/04/29 09:33:37;;;;;;;9.48;7.75;;;;;;;17.35;53.59;99284.38;5031185;28;20481;-73
2021/04/29 09:36:04;;;;;;;9.82;6.72;;;;;;;17.34;53.49;99287.97;5031441;28;20500;-73
2021/04/29 09:38:32;;;;;;;9.13;7.57;;;;;;;17.13;53.84;99289.13;5031153;28;20182;-73
2021/04/29 09:40:57;;;;;;;9.30;7.25;;;;;;;17.00;54.71;99297.78;5031205;28;20026;-73
2021/04/29 09:43:23;;;;;;;11.05;7.50;;;;;;;17.09;53.48;99294.63;5030884;28;20040;-73
2021/04/29 09:45:58;;;;;;;7.63;6.78;;;;;;;17.35;53.77;99300.38;5031212;28;20064;-73
2021/04/29 09:48:37;;;;;;;9.07;7.22;;;;;;;17.33;53.64;99296.94;5028240;28;20520;-73
2021/04/29 09:51:04;;;;;;;8.32;6.82;;;;;;;17.11;54.28;99299.00;5031091;28;20120;-73
2021/04/29 09:53:49;;;;;;;9.77;6.70;;;;;;;16.97;53.85;99300.59;5030808;28;20436;-73
2021/04/29 09:56:16;;;;;;;7.93;6.55;;;;;;;16.85;54.86;99303.91;5028812;28;20030;-73
2021/04/29 09:58:47;;;;;;;8.32;7.03;;;;;;;16.69;54.81;99313.56;5031007;28;20041;-73
2021/04/29 10:03:45;;;;;;;8.27;6.60;;;;;;;16.20;57.20;99314.22;4998626;28;20050;-75
2021/04/29 10:06:13;;;;;;;7.55;6.15;;;;;;;16.24;56.52;99318.44;4982719;28;20038;-75
2021/04/29 10:08:38;;;;;;;7.93;5.78;;;;;;;16.28;56.44;99317.38;4978989;28;20030;-75
2021/04/29 10:11:05;;;;;;;8.85;6.10;;;;;;;16.15;56.48;99306.44;4993673;28;20132;-75
2021/04/29 10:13:33;;;;;;;7.45;6.13;;;;;;;16.25;56.73;99304.22;4982654;28;20038;-75
2021/04/29 10:15:59;;;;;;;6.97;6.28;;;;;;;16.23;56.82;99306.09;4981417;28;20038;-75
2021/04/29 10:18:25;;;;;;;8.10;6.25;;;;;;;16.27;55.69;99304.13;4980890;28;20034;-75
2021/04/29 10:20:52;;;;;;;7.15;5.75;;;;;;;16.11;56.00;99309.31;4979181;28;20101;-75
2021/04/29 10:23:20;;;;;;;8.13;6.38;;;;;;;16.30;55.33;99310.19;4981558;28;20050;-76
2021/04/29 10:25:50;;;;;;;7.07;5.72;;;;;;;16.26;55.59;99313.06;5005707;28;20109;-75
2021/04/29 10:28:27;;;;;;;8.48;5.20;;;;;;;16.52;55.68;99309.97;5004664;28;20541;-74
2021/04/29 10:30:53;;;;;;;6.78;5.45;;;;;;;16.95;53.33;99305.16;5003869;28;20037;-74
2021/04/29 10:33:20;;;;;;;8.27;5.15;;;;;;;17.46;53.88;99306.00;4981423;28;20039;-75
2021/04/29 10:35:49;;;;;;;7.00;5.40;;;;;;;17.86;52.07;99317.19;4983071;28;20183;-76
2021/04/29 10:38:28;;;;;;;6.47;4.93;;;;;;;18.14;52.29;99303.16;4985616;28;20035;-76
2021/04/29 10:40:56;;;;;;;14.15;5.60;;;;;;;18.45;50.36;99314.75;4984834;28;20085;-74
2021/04/29 10:43:33;;;;;;;8.25;5.40;;;;;;;18.49;49.48;99310.09;4999444;28;20039;-75
2021/04/29 10:46:03;;;;;;;6.40;4.88;;;;;;;18.29;50.21;99305.91;4984617;28;20035;-76
2021/04/29 10:48:30;;;;;;;6.88;5.50;;;;;;;18.44;48.75;99301.47;4984207;28;20047;-76
2021/04/29 10:51:08;;;;;;;6.82;6.07;;;;;;;18.43;48.30;99300.63;4983916;28;20052;-75
2021/04/29 10:53:35;;;;;;;7.07;6.30;;;;;;;18.22;47.01;99300.03;4984852;28;20085;-76
2021/04/29 10:56:09;;;;;;;6.97;5.80;;;;;;;18.04;48.64;99298.44;4984054;28;20097;-76
2021/04/29 10:58:35;;;;;;;7.97;5.63;;;;;;;18.11;47.81;99310.50;4984891;28;20034;-76
2021/04/29 11:01:19;;;;;;;7.88;5.85;;;;;;;18.32;47.64;99301.25;4986957;28;20041;-75
2021/04/29 11:03:50;;;;;;;6.40;5.80;;;;;;;18.37;48.62;99311.66;4985884;28;20038;-74
2021/04/29 11:06:35;;;;;;;5.97;5.38;;;;;;;18.46;47.21;99312.94;4988946;28;20515;-76
2021/04/29 11:09:01;;;;;;;8.98;5.72;;;;;;;18.59;45.43;99332.66;4988504;28;20043;-75
2021/04/29 11:11:35;;;;;;;7.18;5.75;;;;;;;18.36;45.57;99316.13;4992448;28;20117;-75
2021/04/29 11:14:07;;;;;;;7.60;4.88;;;;;;;18.50;48.29;99318.03;5000577;28;20034;-76
2021/04/29 11:16:53;;;;;;;7.27;5.13;;;;;;;18.39;44.17;99315.97;4983945;28;20031;-75
2021/04/29 11:19:35;;;;;;;8.13;5.10;;;;;;;18.41;44.93;99318.53;4982962;28;20312;-76
2021/04/29 11:22:03;;;;;;;7.85;4.68;;;;;;;18.63;46.18;99323.53;4983981;28;20035;-76
2021/04/29 11:24:33;;;;;;;10.60;5.38;;;;;;;18.76;45.20;99340.59;4983486;28;20043;-75
2021/04/29 11:26:59;;;;;;;7.95;4.78;;;;;;;18.76;43.54;99311.19;4999205;28;20046;-75
2021/04/29 11:29:35;;;;;;;8.55;5.97;;;;;;;18.84;45.37;99326.78;4983747;28;20044;-75